METAR Data
IDs: Format: Raw Decoded Include TAF

Data at: 1936 UTC 31 Jul 2021

METAR for:KJYO (Leesburg/Executive A, VA, US)
Text:KJYO 311935Z AUTO 24005KT 10SM CLR 27/15 A2998 RMK AO2
Temperature: 27.0°C ( 81°F)
Dewpoint: 15.0°C ( 59°F) [RH = 48%]
Pressure (altimeter):29.98 inches Hg (1015.3 mb)
Winds:from the WSW (240 degrees) at 6 MPH (5 knots; 2.6 m/s)
Visibility:10 or more sm (16+ km)
Ceiling:at least 12,000 feet AGL
Clouds:sky clear below 12,000 feet AGL
QC Flag:automated observation with no human augmentation